sensor_id;sensor_type;location;lat;lon;timestamp;P1;durP1;ratioP1;P2;durP2;ratioP2
75090;SDS011;63674;48.048;8.306;2024-01-10T00:02:08;24.47;;;9.53;;
75090;SDS011;63674;48.048;8.306;2024-01-10T00:04:37;24.85;;;10.25;;
75090;SDS011;63674;48.048;8.306;2024-01-10T00:07:06;27.75;;;11.45;;
75090;SDS011;63674;48.048;8.306;2024-01-10T00:09:34;23.08;;;9.68;;
75090;SDS011;63674;48.048;8.306;2024-01-10T00:12:03;25.75;;;10.35;;
75090;SDS011;63674;48.048;8.306;2024-01-10T00:14:33;27.33;;;11.07;;
75090;SDS011;63674;48.048;8.306;2024-01-10T00:17:03;23.77;;;10.02;;
75090;SDS011;63674;48.048;8.306;2024-01-10T00:19:32;26.80;;;10.13;;
75090;SDS011;63674;48.048;8.306;2024-01-10T00:22:00;26.00;;;10.18;;
75090;SDS011;63674;48.048;8.306;2024-01-10T00:24:29;25.65;;;10.15;;
75090;SDS011;63674;48.048;8.306;2024-01-10T00:26:58;24.10;;;10.10;;
75090;SDS011;63674;48.048;8.306;2024-01-10T00:29:26;26.88;;;11.05;;
75090;SDS011;63674;48.048;8.306;2024-01-10T00:31:55;27.23;;;10.65;;
75090;SDS011;63674;48.048;8.306;2024-01-10T00:34:27;27.88;;;10.48;;
75090;SDS011;63674;48.048;8.306;2024-01-10T00:36:56;25.23;;;9.73;;
75090;SDS011;63674;48.048;8.306;2024-01-10T00:39:24;26.47;;;10.30;;
75090;SDS011;63674;48.048;8.306;2024-01-10T00:41:53;28.50;;;11.27;;
75090;SDS011;63674;48.048;8.306;2024-01-10T00:44:22;28.27;;;10.20;;
75090;SDS011;63674;48.048;8.306;2024-01-10T00:46:50;23.20;;;9.45;;
75090;SDS011;63674;48.048;8.306;2024-01-10T00:49:19;27.33;;;10.93;;
75090;SDS011;63674;48.048;8.306;2024-01-10T00:51:49;24.70;;;9.83;;
75090;SDS011;63674;48.048;8.306;2024-01-10T00:54:18;29.90;;;10.43;;
75090;SDS011;63674;48.048;8.306;2024-01-10T00:56:46;27.88;;;10.55;;
75090;SDS011;63674;48.048;8.306;2024-01-10T00:59:17;30.17;;;11.43;;
75090;SDS011;63674;48.048;8.306;2024-01-10T01:01:46;36.95;;;12.43;;
75090;SDS011;63674;48.048;8.306;2024-01-10T01:04:15;42.77;;;13.80;;
75090;SDS011;63674;48.048;8.306;2024-01-10T01:06:44;40.22;;;12.45;;
75090;SDS011;63674;48.048;8.306;2024-01-10T01:09:13;26.80;;;10.43;;
75090;SDS011;63674;48.048;8.306;2024-01-10T01:11:42;25.38;;;10.18;;
75090;SDS011;63674;48.048;8.306;2024-01-10T01:14:11;23.98;;;9.63;;
75090;SDS011;63674;48.048;8.306;2024-01-10T01:16:39;23.33;;;9.93;;
75090;SDS011;63674;48.048;8.306;2024-01-10T01:19:08;29.20;;;10.85;;
75090;SDS011;63674;48.048;8.306;2024-01-10T01:21:37;27.00;;;11.38;;
75090;SDS011;63674;48.048;8.306;2024-01-10T01:24:05;24.52;;;10.25;;
75090;SDS011;63674;48.048;8.306;2024-01-10T01:26:35;24.48;;;10.15;;
75090;SDS011;63674;48.048;8.306;2024-01-10T01:29:04;24.20;;;9.43;;
75090;SDS011;63674;48.048;8.306;2024-01-10T01:31:35;25.23;;;9.88;;
75090;SDS011;63674;48.048;8.306;2024-01-10T01:34:04;26.70;;;9.77;;
75090;SDS011;63674;48.048;8.306;2024-01-10T01:36:32;28.25;;;11.05;;
75090;SDS011;63674;48.048;8.306;2024-01-10T01:39:01;30.88;;;11.60;;
75090;SDS011;63674;48.048;8.306;2024-01-10T01:41:30;22.83;;;9.87;;
75090;SDS011;63674;48.048;8.306;2024-01-10T01:43:59;25.02;;;10.32;;
75090;SDS011;63674;48.048;8.306;2024-01-10T01:46:28;27.98;;;10.63;;
75090;SDS011;63674;48.048;8.306;2024-01-10T01:48:57;24.42;;;10.23;;
75090;SDS011;63674;48.048;8.306;2024-01-10T01:51:26;25.58;;;10.27;;
75090;SDS011;63674;48.048;8.306;2024-01-10T01:53:57;25.30;;;10.57;;
75090;SDS011;63674;48.048;8.306;2024-01-10T01:56:26;25.08;;;10.32;;
75090;SDS011;63674;48.048;8.306;2024-01-10T01:58:54;25.20;;;10.48;;
75090;SDS011;63674;48.048;8.306;2024-01-10T02:01:25;27.08;;;10.60;;
75090;SDS011;63674;48.048;8.306;2024-01-10T02:03:54;23.42;;;9.80;;
75090;SDS011;63674;48.048;8.306;2024-01-10T02:06:23;29.07;;;10.27;;
75090;SDS011;63674;48.048;8.306;2024-01-10T02:08:52;26.40;;;10.15;;
75090;SDS011;63674;48.048;8.306;2024-01-10T02:11:20;28.48;;;10.90;;
75090;SDS011;63674;48.048;8.306;2024-01-10T02:13:49;24.60;;;10.07;;
75090;SDS011;63674;48.048;8.306;2024-01-10T02:16:21;27.60;;;10.73;;
75090;SDS011;63674;48.048;8.306;2024-01-10T02:18:52;25.53;;;10.20;;
75090;SDS011;63674;48.048;8.306;2024-01-10T02:21:21;24.90;;;10.65;;
75090;SDS011;63674;48.048;8.306;2024-01-10T02:23:50;26.90;;;11.10;;
75090;SDS011;63674;48.048;8.306;2024-01-10T02:26:19;24.30;;;10.18;;
75090;SDS011;63674;48.048;8.306;2024-01-10T02:28:48;26.23;;;11.02;;
75090;SDS011;63674;48.048;8.306;2024-01-10T02:31:35;24.67;;;9.50;;
75090;SDS011;63674;48.048;8.306;2024-01-10T02:34:23;27.45;;;11.15;;
75090;SDS011;63674;48.048;8.306;2024-01-10T02:37:10;27.23;;;10.57;;
75090;SDS011;63674;48.048;8.306;2024-01-10T02:39:57;25.05;;;9.88;;
75090;SDS011;63674;48.048;8.306;2024-01-10T02:42:47;25.92;;;11.05;;
75090;SDS011;63674;48.048;8.306;2024-01-10T02:45:36;24.17;;;10.23;;
75090;SDS011;63674;48.048;8.306;2024-01-10T02:48:23;26.80;;;9.90;;
75090;SDS011;63674;48.048;8.306;2024-01-10T02:51:11;27.92;;;10.70;;
75090;SDS011;63674;48.048;8.306;2024-01-10T02:53:58;26.92;;;10.27;;
75090;SDS011;63674;48.048;8.306;2024-01-10T02:56:45;25.75;;;11.00;;
75090;SDS011;63674;48.048;8.306;2024-01-10T02:59:33;24.37;;;10.17;;
75090;SDS011;63674;48.048;8.306;2024-01-10T03:02:20;26.00;;;10.45;;
75090;SDS011;63674;48.048;8.306;2024-01-10T03:05:08;27.38;;;10.90;;
75090;SDS011;63674;48.048;8.306;2024-01-10T03:07:56;25.70;;;10.70;;
75090;SDS011;63674;48.048;8.306;2024-01-10T03:10:43;26.60;;;10.98;;
75090;SDS011;63674;48.048;8.306;2024-01-10T03:13:30;24.70;;;9.83;;
75090;SDS011;63674;48.048;8.306;2024-01-10T03:16:19;26.92;;;10.40;;
75090;SDS011;63674;48.048;8.306;2024-01-10T03:19:06;28.52;;;10.70;;
75090;SDS011;63674;48.048;8.306;2024-01-10T03:21:53;24.70;;;10.18;;
75090;SDS011;63674;48.048;8.306;2024-01-10T03:24:40;25.40;;;10.77;;
75090;SDS011;63674;48.048;8.306;2024-01-10T03:27:28;25.07;;;9.97;;
75090;SDS011;63674;48.048;8.306;2024-01-10T03:30:15;24.63;;;10.05;;
75090;SDS011;63674;48.048;8.306;2024-01-10T03:33:06;26.05;;;10.90;;
75090;SDS011;63674;48.048;8.306;2024-01-10T03:35:53;26.60;;;10.65;;
75090;SDS011;63674;48.048;8.306;2024-01-10T03:38:40;25.45;;;10.18;;
75090;SDS011;63674;48.048;8.306;2024-01-10T03:41:12;26.67;;;10.47;;
75090;SDS011;63674;48.048;8.306;2024-01-10T03:43:41;23.48;;;9.70;;
75090;SDS011;63674;48.048;8.306;2024-01-10T03:46:11;23.65;;;10.15;;
75090;SDS011;63674;48.048;8.306;2024-01-10T03:48:41;25.65;;;10.25;;
75090;SDS011;63674;48.048;8.306;2024-01-10T03:51:15;24.98;;;10.07;;
75090;SDS011;63674;48.048;8.306;2024-01-10T03:53:44;25.77;;;10.10;;
75090;SDS011;63674;48.048;8.306;2024-01-10T03:56:16;25.25;;;10.00;;
75090;SDS011;63674;48.048;8.306;2024-01-10T03:58:44;24.05;;;9.50;;
75090;SDS011;63674;48.048;8.306;2024-01-10T04:01:15;24.77;;;9.30;;
75090;SDS011;63674;48.048;8.306;2024-01-10T04:03:45;25.45;;;9.95;;
75090;SDS011;63674;48.048;8.306;2024-01-10T04:06:13;26.20;;;10.00;;
75090;SDS011;63674;48.048;8.306;2024-01-10T04:08:42;26.40;;;10.02;;
75090;SDS011;63674;48.048;8.306;2024-01-10T04:11:11;26.67;;;10.88;;
75090;SDS011;63674;48.048;8.306;2024-01-10T04:13:39;26.75;;;10.15;;
75090;SDS011;63674;48.048;8.306;2024-01-10T04:16:08;23.85;;;10.38;;
75090;SDS011;63674;48.048;8.306;2024-01-10T04:18:36;23.13;;;9.20;;
75090;SDS011;63674;48.048;8.306;2024-01-10T04:21:07;27.55;;;9.60;;
75090;SDS011;63674;48.048;8.306;2024-01-10T04:23:36;23.63;;;9.48;;
75090;SDS011;63674;48.048;8.306;2024-01-10T04:26:04;26.90;;;9.95;;
75090;SDS011;63674;48.048;8.306;2024-01-10T04:28:33;24.98;;;9.55;;
75090;SDS011;63674;48.048;8.306;2024-01-10T04:31:01;24.90;;;9.63;;
75090;SDS011;63674;48.048;8.306;2024-01-10T04:33:30;26.05;;;9.43;;
75090;SDS011;63674;48.048;8.306;2024-01-10T04:35:58;21.85;;;9.60;;
75090;SDS011;63674;48.048;8.306;2024-01-10T04:38:28;27.65;;;9.95;;
75090;SDS011;63674;48.048;8.306;2024-01-10T04:40:57;27.77;;;10.18;;
75090;SDS011;63674;48.048;8.306;2024-01-10T04:43:26;29.30;;;10.17;;
75090;SDS011;63674;48.048;8.306;2024-01-10T04:45:54;22.20;;;9.43;;
75090;SDS011;63674;48.048;8.306;2024-01-10T04:48:23;26.33;;;10.90;;
75090;SDS011;63674;48.048;8.306;2024-01-10T04:50:52;28.65;;;10.48;;
75090;SDS011;63674;48.048;8.306;2024-01-10T04:53:20;25.98;;;10.52;;
75090;SDS011;63674;48.048;8.306;2024-01-10T04:55:50;24.57;;;9.73;;
75090;SDS011;63674;48.048;8.306;2024-01-10T04:58:19;27.17;;;10.13;;
75090;SDS011;63674;48.048;8.306;2024-01-10T05:00:47;21.75;;;9.30;;
75090;SDS011;63674;48.048;8.306;2024-01-10T05:03:17;23.98;;;9.40;;
75090;SDS011;63674;48.048;8.306;2024-01-10T05:05:46;23.85;;;9.52;;
75090;SDS011;63674;48.048;8.306;2024-01-10T05:08:15;24.80;;;9.17;;
75090;SDS011;63674;48.048;8.306;2024-01-10T05:10:47;25.90;;;9.65;;
75090;SDS011;63674;48.048;8.306;2024-01-10T05:13:17;21.95;;;9.20;;
75090;SDS011;63674;48.048;8.306;2024-01-10T05:15:45;25.25;;;8.93;;
75090;SDS011;63674;48.048;8.306;2024-01-10T05:18:14;22.52;;;9.45;;
75090;SDS011;63674;48.048;8.306;2024-01-10T05:20:44;26.30;;;10.20;;
75090;SDS011;63674;48.048;8.306;2024-01-10T05:23:13;29.15;;;10.88;;
75090;SDS011;63674;48.048;8.306;2024-01-10T05:25:41;26.55;;;10.25;;
75090;SDS011;63674;48.048;8.306;2024-01-10T05:28:10;21.45;;;8.80;;
75090;SDS011;63674;48.048;8.306;2024-01-10T05:30:40;26.10;;;10.20;;
75090;SDS011;63674;48.048;8.306;2024-01-10T05:33:09;28.83;;;10.90;;
75090;SDS011;63674;48.048;8.306;2024-01-10T05:35:38;22.92;;;10.02;;
75090;SDS011;63674;48.048;8.306;2024-01-10T05:38:07;23.90;;;9.52;;
75090;SDS011;63674;48.048;8.306;2024-01-10T05:40:35;25.77;;;9.68;;
75090;SDS011;63674;48.048;8.306;2024-01-10T05:43:04;23.73;;;9.07;;
75090;SDS011;63674;48.048;8.306;2024-01-10T05:45:33;29.27;;;10.13;;
75090;SDS011;63674;48.048;8.306;2024-01-10T05:48:03;23.00;;;9.57;;
75090;SDS011;63674;48.048;8.306;2024-01-10T05:50:33;24.30;;;10.05;;
75090;SDS011;63674;48.048;8.306;2024-01-10T05:53:02;23.40;;;8.65;;
75090;SDS011;63674;48.048;8.306;2024-01-10T05:55:31;26.77;;;10.38;;
75090;SDS011;63674;48.048;8.306;2024-01-10T05:58:00;24.40;;;9.00;;
75090;SDS011;63674;48.048;8.306;2024-01-10T06:00:28;24.20;;;9.10;;
75090;SDS011;63674;48.048;8.306;2024-01-10T06:02:57;21.85;;;8.82;;
75090;SDS011;63674;48.048;8.306;2024-01-10T06:05:27;26.50;;;10.27;;
75090;SDS011;63674;48.048;8.306;2024-01-10T06:07:58;25.70;;;9.88;;
75090;SDS011;63674;48.048;8.306;2024-01-10T06:10:26;22.67;;;8.77;;
75090;SDS011;63674;48.048;8.306;2024-01-10T06:12:57;24.67;;;9.15;;
75090;SDS011;63674;48.048;8.306;2024-01-10T06:15:26;26.90;;;9.95;;
75090;SDS011;63674;48.048;8.306;2024-01-10T06:17:55;22.63;;;9.38;;
75090;SDS011;63674;48.048;8.306;2024-01-10T06:20:25;28.55;;;10.50;;
75090;SDS011;63674;48.048;8.306;2024-01-10T06:22:55;26.27;;;9.53;;
75090;SDS011;63674;48.048;8.306;2024-01-10T06:25:24;27.08;;;8.85;;
75090;SDS011;63674;48.048;8.306;2024-01-10T06:27:52;25.88;;;9.85;;
75090;SDS011;63674;48.048;8.306;2024-01-10T06:30:21;25.63;;;10.00;;
75090;SDS011;63674;48.048;8.306;2024-01-10T06:32:50;28.50;;;10.27;;
75090;SDS011;63674;48.048;8.306;2024-01-10T06:35:19;24.70;;;8.57;;
75090;SDS011;63674;48.048;8.306;2024-01-10T06:37:47;25.70;;;10.38;;
75090;SDS011;63674;48.048;8.306;2024-01-10T06:40:17;22.77;;;9.68;;
75090;SDS011;63674;48.048;8.306;2024-01-10T06:42:48;25.63;;;9.40;;
75090;SDS011;63674;48.048;8.306;2024-01-10T06:45:16;24.83;;;10.10;;
75090;SDS011;63674;48.048;8.306;2024-01-10T06:47:46;34.20;;;12.87;;
75090;SDS011;63674;48.048;8.306;2024-01-10T06:50:15;32.13;;;11.77;;
75090;SDS011;63674;48.048;8.306;2024-01-10T06:52:45;28.67;;;11.38;;
75090;SDS011;63674;48.048;8.306;2024-01-10T06:55:15;31.42;;;11.18;;
75090;SDS011;63674;48.048;8.306;2024-01-10T06:57:45;29.35;;;11.30;;
75090;SDS011;63674;48.048;8.306;2024-01-10T07:00:15;27.83;;;10.27;;
75090;SDS011;63674;48.048;8.306;2024-01-10T07:03:05;29.23;;;10.50;;
75090;SDS011;63674;48.048;8.306;2024-01-10T07:05:33;27.45;;;10.85;;
75090;SDS011;63674;48.048;8.306;2024-01-10T07:08:02;29.00;;;10.63;;
75090;SDS011;63674;48.048;8.306;2024-01-10T07:10:33;30.42;;;10.82;;
75090;SDS011;63674;48.048;8.306;2024-01-10T07:13:01;30.27;;;11.30;;
75090;SDS011;63674;48.048;8.306;2024-01-10T07:15:30;34.38;;;11.88;;
75090;SDS011;63674;48.048;8.306;2024-01-10T07:17:59;28.90;;;11.07;;
75090;SDS011;63674;48.048;8.306;2024-01-10T07:20:28;25.90;;;10.20;;
75090;SDS011;63674;48.048;8.306;2024-01-10T07:22:56;26.85;;;9.43;;
75090;SDS011;63674;48.048;8.306;2024-01-10T07:25:25;26.33;;;8.97;;
75090;SDS011;63674;48.048;8.306;2024-01-10T07:27:55;25.83;;;10.68;;
75090;SDS011;63674;48.048;8.306;2024-01-10T07:30:26;29.48;;;12.23;;
75090;SDS011;63674;48.048;8.306;2024-01-10T07:32:58;29.02;;;9.98;;
75090;SDS011;63674;48.048;8.306;2024-01-10T07:35:28;25.75;;;9.52;;
75090;SDS011;63674;48.048;8.306;2024-01-10T07:37:57;24.30;;;9.20;;
75090;SDS011;63674;48.048;8.306;2024-01-10T07:40:25;24.42;;;9.43;;
75090;SDS011;63674;48.048;8.306;2024-01-10T07:42:57;27.17;;;9.93;;
75090;SDS011;63674;48.048;8.306;2024-01-10T07:45:25;23.55;;;8.70;;
75090;SDS011;63674;48.048;8.306;2024-01-10T07:47:54;27.05;;;10.43;;
75090;SDS011;63674;48.048;8.306;2024-01-10T07:50:23;25.93;;;9.30;;
75090;SDS011;63674;48.048;8.306;2024-01-10T07:52:53;23.33;;;8.80;;
75090;SDS011;63674;48.048;8.306;2024-01-10T07:55:23;24.50;;;9.55;;
75090;SDS011;63674;48.048;8.306;2024-01-10T07:57:51;25.77;;;8.80;;
75090;SDS011;63674;48.048;8.306;2024-01-10T08:00:21;27.77;;;9.05;;
75090;SDS011;63674;48.048;8.306;2024-01-10T08:02:50;23.63;;;8.60;;
75090;SDS011;63674;48.048;8.306;2024-01-10T08:05:19;24.63;;;8.80;;
75090;SDS011;63674;48.048;8.306;2024-01-10T08:07:48;27.92;;;10.40;;
75090;SDS011;63674;48.048;8.306;2024-01-10T08:10:17;32.85;;;10.75;;
75090;SDS011;63674;48.048;8.306;2024-01-10T08:12:45;27.27;;;10.48;;
75090;SDS011;63674;48.048;8.306;2024-01-10T08:15:16;25.33;;;9.73;;
75090;SDS011;63674;48.048;8.306;2024-01-10T08:17:47;29.40;;;10.80;;
75090;SDS011;63674;48.048;8.306;2024-01-10T08:20:16;29.90;;;11.25;;
75090;SDS011;63674;48.048;8.306;2024-01-10T08:22:47;25.67;;;9.85;;
75090;SDS011;63674;48.048;8.306;2024-01-10T08:25:16;26.40;;;10.00;;
75090;SDS011;63674;48.048;8.306;2024-01-10T08:27:45;26.63;;;9.90;;
75090;SDS011;63674;48.048;8.306;2024-01-10T08:30:16;27.58;;;9.98;;
75090;SDS011;63674;48.048;8.306;2024-01-10T08:32:44;25.00;;;9.82;;
75090;SDS011;63674;48.048;8.306;2024-01-10T08:35:14;27.25;;;9.75;;
75090;SDS011;63674;48.048;8.306;2024-01-10T08:37:43;27.50;;;10.60;;
75090;SDS011;63674;48.048;8.306;2024-01-10T08:40:13;28.70;;;11.10;;
75090;SDS011;63674;48.048;8.306;2024-01-10T08:42:43;29.52;;;11.00;;
75090;SDS011;63674;48.048;8.306;2024-01-10T08:45:14;27.92;;;11.18;;
75090;SDS011;63674;48.048;8.306;2024-01-10T08:47:44;27.98;;;10.77;;
75090;SDS011;63674;48.048;8.306;2024-01-10T08:50:14;28.77;;;11.15;;
75090;SDS011;63674;48.048;8.306;2024-01-10T08:52:43;24.23;;;9.47;;
75090;SDS011;63674;48.048;8.306;2024-01-10T08:55:12;25.13;;;9.75;;
75090;SDS011;63674;48.048;8.306;2024-01-10T08:57:40;26.60;;;10.63;;
75090;SDS011;63674;48.048;8.306;2024-01-10T09:00:09;29.38;;;10.23;;
75090;SDS011;63674;48.048;8.306;2024-01-10T09:02:42;25.42;;;10.73;;
75090;SDS011;63674;48.048;8.306;2024-01-10T09:05:15;33.47;;;11.77;;
75090;SDS011;63674;48.048;8.306;2024-01-10T09:07:44;30.80;;;11.63;;
75090;SDS011;63674;48.048;8.306;2024-01-10T09:10:12;28.38;;;11.13;;
75090;SDS011;63674;48.048;8.306;2024-01-10T09:12:41;31.40;;;12.30;;
75090;SDS011;63674;48.048;8.306;2024-01-10T09:15:13;30.50;;;11.95;;
75090;SDS011;63674;48.048;8.306;2024-01-10T09:17:42;33.77;;;13.53;;
75090;SDS011;63674;48.048;8.306;2024-01-10T09:20:12;31.02;;;11.77;;
75090;SDS011;63674;48.048;8.306;2024-01-10T09:22:43;32.65;;;12.63;;
75090;SDS011;63674;48.048;8.306;2024-01-10T09:25:12;34.00;;;12.90;;
75090;SDS011;63674;48.048;8.306;2024-01-10T09:27:41;30.35;;;11.75;;
75090;SDS011;63674;48.048;8.306;2024-01-10T09:30:11;37.33;;;14.93;;
75090;SDS011;63674;48.048;8.306;2024-01-10T09:32:43;39.13;;;14.85;;
75090;SDS011;63674;48.048;8.306;2024-01-10T09:35:16;39.35;;;15.30;;
75090;SDS011;63674;48.048;8.306;2024-01-10T09:37:45;32.05;;;13.20;;
75090;SDS011;63674;48.048;8.306;2024-01-10T09:40:14;36.90;;;13.98;;
75090;SDS011;63674;48.048;8.306;2024-01-10T09:42:44;26.33;;;12.17;;
75090;SDS011;63674;48.048;8.306;2024-01-10T09:45:14;32.33;;;12.07;;
75090;SDS011;63674;48.048;8.306;2024-01-10T09:47:45;28.83;;;11.00;;
75090;SDS011;63674;48.048;8.306;2024-01-10T09:50:18;31.45;;;12.30;;
75090;SDS011;63674;48.048;8.306;2024-01-10T09:52:48;32.60;;;13.10;;
75090;SDS011;63674;48.048;8.306;2024-01-10T09:55:20;37.83;;;14.73;;
75090;SDS011;63674;48.048;8.306;2024-01-10T09:57:52;34.03;;;15.40;;
75090;SDS011;63674;48.048;8.306;2024-01-10T10:00:20;33.22;;;13.85;;
75090;SDS011;63674;48.048;8.306;2024-01-10T10:02:52;32.38;;;12.88;;
75090;SDS011;63674;48.048;8.306;2024-01-10T10:05:25;30.30;;;12.52;;
75090;SDS011;63674;48.048;8.306;2024-01-10T10:07:56;32.60;;;13.33;;
75090;SDS011;63674;48.048;8.306;2024-01-10T10:10:32;32.17;;;13.25;;
75090;SDS011;63674;48.048;8.306;2024-01-10T10:13:00;34.63;;;13.70;;
75090;SDS011;63674;48.048;8.306;2024-01-10T10:15:30;29.67;;;13.45;;
75090;SDS011;63674;48.048;8.306;2024-01-10T10:17:58;38.27;;;14.10;;
75090;SDS011;63674;48.048;8.306;2024-01-10T10:20:27;30.92;;;13.10;;
75090;SDS011;63674;48.048;8.306;2024-01-10T10:23:00;32.90;;;13.20;;
75090;SDS011;63674;48.048;8.306;2024-01-10T10:25:30;30.33;;;13.48;;
75090;SDS011;63674;48.048;8.306;2024-01-10T10:28:02;48.75;;;16.85;;
75090;SDS011;63674;48.048;8.306;2024-01-10T10:30:36;32.42;;;13.55;;
75090;SDS011;63674;48.048;8.306;2024-01-10T10:33:05;32.28;;;13.13;;
75090;SDS011;63674;48.048;8.306;2024-01-10T10:35:35;32.42;;;13.32;;
75090;SDS011;63674;48.048;8.306;2024-01-10T10:38:10;30.48;;;13.18;;
75090;SDS011;63674;48.048;8.306;2024-01-10T10:40:40;39.92;;;14.88;;
75090;SDS011;63674;48.048;8.306;2024-01-10T10:43:09;38.17;;;13.88;;
75090;SDS011;63674;48.048;8.306;2024-01-10T10:45:43;31.13;;;13.05;;
75090;SDS011;63674;48.048;8.306;2024-01-10T10:48:17;38.75;;;13.63;;
75090;SDS011;63674;48.048;8.306;2024-01-10T10:50:50;27.52;;;11.02;;
75090;SDS011;63674;48.048;8.306;2024-01-10T10:53:26;20.88;;;9.23;;
75090;SDS011;63674;48.048;8.306;2024-01-10T10:55:58;24.63;;;9.85;;
75090;SDS011;63674;48.048;8.306;2024-01-10T10:58:28;28.65;;;10.68;;
75090;SDS011;63674;48.048;8.306;2024-01-10T11:01:00;26.92;;;10.95;;
75090;SDS011;63674;48.048;8.306;2024-01-10T11:03:34;25.98;;;10.07;;
75090;SDS011;63674;48.048;8.306;2024-01-10T11:06:04;22.92;;;9.57;;
75090;SDS011;63674;48.048;8.306;2024-01-10T11:08:36;23.35;;;9.95;;
75090;SDS011;63674;48.048;8.306;2024-01-10T11:11:14;23.55;;;9.25;;
75090;SDS011;63674;48.048;8.306;2024-01-10T11:13:56;23.38;;;9.80;;
75090;SDS011;63674;48.048;8.306;2024-01-10T11:16:50;24.58;;;10.00;;
75090;SDS011;63674;48.048;8.306;2024-01-10T11:20:13;20.25;;;8.85;;
75090;SDS011;63674;48.048;8.306;2024-01-10T11:26:08;20.45;;;7.95;;
75090;SDS011;63674;48.048;8.306;2024-01-10T11:28:39;29.98;;;11.82;;
75090;SDS011;63674;48.048;8.306;2024-01-10T11:31:08;28.85;;;10.13;;
75090;SDS011;63674;48.048;8.306;2024-01-10T11:33:39;27.35;;;11.93;;
75090;SDS011;63674;48.048;8.306;2024-01-10T11:36:11;28.23;;;12.35;;
75090;SDS011;63674;48.048;8.306;2024-01-10T11:38:44;23.27;;;10.15;;
75090;SDS011;63674;48.048;8.306;2024-01-10T11:41:21;24.30;;;11.32;;
75090;SDS011;63674;48.048;8.306;2024-01-10T11:46:59;24.65;;;9.68;;
75090;SDS011;63674;48.048;8.306;2024-01-10T11:49:28;18.40;;;8.52;;
75090;SDS011;63674;48.048;8.306;2024-01-10T11:51:57;16.23;;;7.03;;
75090;SDS011;63674;48.048;8.306;2024-01-10T11:54:40;16.85;;;7.45;;
75090;SDS011;63674;48.048;8.306;2024-01-10T11:57:11;16.00;;;7.72;;
75090;SDS011;63674;48.048;8.306;2024-01-10T11:59:43;16.42;;;6.90;;
75090;SDS011;63674;48.048;8.306;2024-01-10T12:02:13;15.73;;;6.88;;
75090;SDS011;63674;48.048;8.306;2024-01-10T12:04:42;19.35;;;8.55;;
75090;SDS011;63674;48.048;8.306;2024-01-10T12:07:14;17.50;;;7.47;;
75090;SDS011;63674;48.048;8.306;2024-01-10T12:09:46;17.50;;;8.43;;
75090;SDS011;63674;48.048;8.306;2024-01-10T12:12:14;20.92;;;8.30;;
75090;SDS011;63674;48.048;8.306;2024-01-10T12:14:45;17.90;;;7.55;;
75090;SDS011;63674;48.048;8.306;2024-01-10T12:17:13;15.02;;;6.90;;
75090;SDS011;63674;48.048;8.306;2024-01-10T12:19:43;13.90;;;6.15;;
75090;SDS011;63674;48.048;8.306;2024-01-10T12:22:15;17.00;;;6.90;;
75090;SDS011;63674;48.048;8.306;2024-01-10T12:24:47;13.82;;;5.57;;
75090;SDS011;63674;48.048;8.306;2024-01-10T12:27:17;12.57;;;5.63;;
75090;SDS011;63674;48.048;8.306;2024-01-10T12:29:51;15.02;;;5.97;;
75090;SDS011;63674;48.048;8.306;2024-01-10T12:32:20;14.38;;;6.50;;
75090;SDS011;63674;48.048;8.306;2024-01-10T12:34:57;12.75;;;5.70;;
75090;SDS011;63674;48.048;8.306;2024-01-10T12:37:29;12.07;;;5.70;;
75090;SDS011;63674;48.048;8.306;2024-01-10T12:39:57;14.48;;;5.78;;
75090;SDS011;63674;48.048;8.306;2024-01-10T12:42:26;15.13;;;6.00;;
75090;SDS011;63674;48.048;8.306;2024-01-10T12:44:56;16.65;;;7.20;;
75090;SDS011;63674;48.048;8.306;2024-01-10T12:47:25;15.73;;;7.45;;
75090;SDS011;63674;48.048;8.306;2024-01-10T12:49:53;15.48;;;6.90;;
75090;SDS011;63674;48.048;8.306;2024-01-10T12:52:22;13.75;;;6.57;;
75090;SDS011;63674;48.048;8.306;2024-01-10T12:54:51;14.27;;;5.97;;
75090;SDS011;63674;48.048;8.306;2024-01-10T12:57:21;14.13;;;6.43;;
75090;SDS011;63674;48.048;8.306;2024-01-10T12:59:50;14.88;;;7.20;;
75090;SDS011;63674;48.048;8.306;2024-01-10T13:02:21;14.70;;;7.13;;
75090;SDS011;63674;48.048;8.306;2024-01-10T13:04:49;15.85;;;6.72;;
75090;SDS011;63674;48.048;8.306;2024-01-10T13:07:18;13.48;;;6.35;;
75090;SDS011;63674;48.048;8.306;2024-01-10T13:09:47;13.38;;;6.43;;
75090;SDS011;63674;48.048;8.306;2024-01-10T13:12:16;14.50;;;6.20;;
75090;SDS011;63674;48.048;8.306;2024-01-10T13:14:44;11.80;;;4.97;;
75090;SDS011;63674;48.048;8.306;2024-01-10T13:17:13;12.60;;;5.30;;
75090;SDS011;63674;48.048;8.306;2024-01-10T13:19:43;11.38;;;5.18;;
75090;SDS011;63674;48.048;8.306;2024-01-10T13:22:15;11.43;;;4.80;;
75090;SDS011;63674;48.048;8.306;2024-01-10T13:24:46;12.10;;;4.95;;
75090;SDS011;63674;48.048;8.306;2024-01-10T13:27:14;13.75;;;5.30;;
75090;SDS011;63674;48.048;8.306;2024-01-10T13:29:47;10.30;;;4.55;;
75090;SDS011;63674;48.048;8.306;2024-01-10T13:32:16;11.38;;;4.50;;
75090;SDS011;63674;48.048;8.306;2024-01-10T13:34:46;10.55;;;4.72;;
75090;SDS011;63674;48.048;8.306;2024-01-10T13:37:14;11.02;;;4.65;;
75090;SDS011;63674;48.048;8.306;2024-01-10T13:39:43;9.65;;;4.40;;
75090;SDS011;63674;48.048;8.306;2024-01-10T13:42:11;10.40;;;5.40;;
75090;SDS011;63674;48.048;8.306;2024-01-10T13:44:40;10.65;;;4.88;;
75090;SDS011;63674;48.048;8.306;2024-01-10T13:47:08;14.48;;;5.72;;
75090;SDS011;63674;48.048;8.306;2024-01-10T13:49:37;14.23;;;5.93;;
75090;SDS011;63674;48.048;8.306;2024-01-10T13:52:08;13.70;;;4.82;;
75090;SDS011;63674;48.048;8.306;2024-01-10T13:54:37;13.10;;;5.32;;
75090;SDS011;63674;48.048;8.306;2024-01-10T13:57:05;12.43;;;5.20;;
75090;SDS011;63674;48.048;8.306;2024-01-10T13:59:34;16.45;;;7.43;;
75090;SDS011;63674;48.048;8.306;2024-01-10T14:02:03;10.82;;;4.65;;
75090;SDS011;63674;48.048;8.306;2024-01-10T14:04:32;13.57;;;6.30;;
75090;SDS011;63674;48.048;8.306;2024-01-10T14:07:01;12.90;;;5.70;;
75090;SDS011;63674;48.048;8.306;2024-01-10T14:09:32;16.70;;;6.43;;
75090;SDS011;63674;48.048;8.306;2024-01-10T14:12:01;13.85;;;6.40;;
75090;SDS011;63674;48.048;8.306;2024-01-10T14:14:30;14.85;;;5.90;;
75090;SDS011;63674;48.048;8.306;2024-01-10T14:16:59;15.68;;;6.78;;
75090;SDS011;63674;48.048;8.306;2024-01-10T14:19:30;12.75;;;5.88;;
75090;SDS011;63674;48.048;8.306;2024-01-10T14:21:59;11.93;;;5.77;;
75090;SDS011;63674;48.048;8.306;2024-01-10T14:24:43;14.32;;;6.03;;
75090;SDS011;63674;48.048;8.306;2024-01-10T14:27:12;19.05;;;8.32;;
75090;SDS011;63674;48.048;8.306;2024-01-10T14:29:41;18.52;;;7.70;;
75090;SDS011;63674;48.048;8.306;2024-01-10T14:32:10;17.00;;;7.32;;
75090;SDS011;63674;48.048;8.306;2024-01-10T14:34:43;14.25;;;7.05;;
75090;SDS011;63674;48.048;8.306;2024-01-10T14:37:13;13.02;;;5.97;;
75090;SDS011;63674;48.048;8.306;2024-01-10T14:39:43;13.20;;;5.32;;
75090;SDS011;63674;48.048;8.306;2024-01-10T14:42:12;12.98;;;5.45;;
75090;SDS011;63674;48.048;8.306;2024-01-10T14:44:40;13.18;;;6.85;;
75090;SDS011;63674;48.048;8.306;2024-01-10T14:47:12;13.18;;;6.20;;
75090;SDS011;63674;48.048;8.306;2024-01-10T14:49:41;15.60;;;6.30;;
75090;SDS011;63674;48.048;8.306;2024-01-10T14:52:10;14.13;;;7.05;;
75090;SDS011;63674;48.048;8.306;2024-01-10T14:54:38;13.48;;;5.57;;
75090;SDS011;63674;48.048;8.306;2024-01-10T14:57:09;10.77;;;5.30;;
75090;SDS011;63674;48.048;8.306;2024-01-10T14:59:37;12.10;;;4.78;;